Time;durP1;ratioP1;P1;durP2;ratioP2;P2;SDS_P1;SDS_P2;PMS_P1;PMS_P2;Temp;Humidity;BMP_temperature;BMP_pressure;BME280_temperature;BME280_humidity;BME280_pressure;Samples;Min_cycle;Max_cycle;Signal;HPM_P1;HPM_P2
2023/03/29 05:06:39;;;;;;;1.88;1.77;;;7.90;99.90;;;;;;4953061;29;20709;-66
2023/03/29 05:09:05;;;;;;;1.85;1.75;;;7.90;99.90;;;;;;4953547;28;20232;-64
2023/03/29 05:11:31;;;;;;;1.70;1.60;;;8.00;99.90;;;;;;4956957;28;20549;-65
2023/03/29 05:14:01;;;;;;;1.40;1.40;;;8.00;99.90;;;;;;4957566;28;20193;-64
2023/03/29 05:16:28;;;;;;;1.55;1.45;;;8.10;99.90;;;;;;4957971;28;20413;-64
2023/03/29 05:18:55;;;;;;;1.10;1.00;;;8.10;99.90;;;;;;4956571;29;20177;-70
2023/03/29 05:21:21;;;;;;;1.42;1.33;;;8.20;99.90;;;;;;4957498;28;20177;-65
2023/03/29 05:23:47;;;;;;;1.15;1.15;;;8.30;99.90;;;;;;4957597;28;20211;-63
2023/03/29 05:26:14;;;;;;;1.05;1.02;;;8.40;99.90;;;;;;4948817;28;20636;-62
2023/03/29 05:28:40;;;;;;;1.58;1.48;;;8.40;99.90;;;;;;4948323;28;20176;-64
2023/03/29 05:31:06;;;;;;;1.65;1.55;;;8.50;99.90;;;;;;4941179;29;20189;-64
2023/03/29 05:33:32;;;;;;;1.57;1.47;;;8.50;99.90;;;;;;4937824;29;20232;-64
2023/03/29 05:36:09;;;;;;;0.80;0.80;;;8.60;99.90;;;;;;4937900;29;20186;-64
2023/03/29 05:38:35;;;;;;;1.80;1.63;;;8.60;99.90;;;;;;4937133;29;20784;-63
2023/03/29 05:41:01;;;;;;;1.20;1.10;;;8.70;99.90;;;;;;4938460;29;20177;-65
2023/03/29 05:43:28;;;;;;;0.90;0.90;;;8.70;99.90;;;;;;4937958;29;20420;-65
2023/03/29 05:45:55;;;;;;;0.90;0.90;;;8.80;99.90;;;;;;4945071;29;20204;-64
2023/03/29 05:48:22;;;;;;;1.60;1.50;;;9.00;99.90;;;;;;4956644;28;20726;-65
2023/03/29 05:50:48;;;;;;;1.77;1.60;;;9.10;99.90;;;;;;4957292;28;20204;-65
2023/03/29 05:53:15;;;;;;;1.00;1.00;;;9.20;99.90;;;;;;4956701;28;20172;-65
2023/03/29 05:55:41;;;;;;;1.30;1.20;;;9.30;99.90;;;;;;4953599;28;20685;-64
2023/03/29 05:58:07;;;;;;;1.07;1.00;;;9.30;99.90;;;;;;4944893;28;20177;-63
2023/03/29 06:00:35;;;;;;;1.47;1.37;;;9.40;99.90;;;;;;4956112;28;20478;-65
2023/03/29 06:03:01;;;;;;;0.75;0.70;;;9.50;99.90;;;;;;4944927;29;20436;-65
2023/03/29 06:05:27;;;;;;;1.20;1.20;;;9.50;99.90;;;;;;4953727;29;20238;-63
2023/03/29 06:07:52;;;;;;;0.90;0.90;;;9.60;99.90;;;;;;4953856;28;20410;-65
2023/03/29 06:10:19;;;;;;;0.93;0.70;;;9.60;99.70;;;;;;4947329;28;20189;-64
2023/03/29 06:12:45;;;;;;;0.98;0.98;;;9.60;99.70;;;;;;4951870;29;20168;-64
2023/03/29 06:15:12;;;;;;;1.50;1.40;;;9.70;99.70;;;;;;4954438;28;20247;-65
2023/03/29 06:17:39;;;;;;;1.52;1.42;;;9.70;99.30;;;;;;4953818;29;20203;-64
2023/03/29 06:20:09;;;;;;;0.70;0.70;;;9.70;99.50;;;;;;4953271;28;20181;-64
2023/03/29 06:22:39;;;;;;;2.28;0.90;;;9.80;99.40;;;;;;4955058;28;20169;-65
2023/03/29 06:25:06;;;;;;;1.30;1.10;;;9.80;99.40;;;;;;4954743;29;20200;-65
2023/03/29 06:27:32;;;;;;;0.82;0.82;;;9.80;99.50;;;;;;4947071;28;20177;-63
2023/03/29 06:30:01;;;;;;;1.10;1.00;;;9.90;99.30;;;;;;4937080;29;20198;-65
2023/03/29 06:32:27;;;;;;;0.85;0.85;;;9.90;99.50;;;;;;4937332;29;20241;-63
2023/03/29 06:34:53;;;;;;;1.43;1.20;;;9.90;99.90;;;;;;4936985;29;20663;-63
2023/03/29 06:37:20;;;;;;;1.60;1.50;;;10.00;99.60;;;;;;4947731;29;20956;-63
2023/03/29 06:39:51;;;;;;;2.25;1.73;;;10.00;99.60;;;;;;4945603;29;20492;-63
2023/03/29 06:42:20;;;;;;;3.28;2.97;;;10.00;99.40;;;;;;4946226;29;20185;-63
2023/03/29 06:44:46;;;;;;;2.58;2.20;;;10.10;99.60;;;;;;4943994;28;20217;-62
2023/03/29 06:47:16;;;;;;;1.23;1.13;;;10.10;99.50;;;;;;4949522;28;20256;-65
2023/03/29 06:49:42;;;;;;;1.92;1.45;;;10.10;99.60;;;;;;4955188;28;20288;-62
2023/03/29 06:52:08;;;;;;;1.70;1.60;;;10.20;99.70;;;;;;4956161;28;20256;-64
2023/03/29 06:54:34;;;;;;;3.10;1.40;;;10.30;99.70;;;;;;4954795;28;20193;-65
2023/03/29 06:57:00;;;;;;;1.63;1.53;;;10.40;99.70;;;;;;4947544;28;20518;-65
2023/03/29 06:59:25;;;;;;;2.67;2.00;;;10.50;99.50;;;;;;4935718;29;20181;-65
2023/03/29 07:01:55;;;;;;;1.50;1.40;;;10.60;99.20;;;;;;4936993;29;20170;-66
2023/03/29 07:04:23;;;;;;;1.80;1.70;;;10.70;99.40;;;;;;4936378;29;20556;-64
2023/03/29 07:07:00;;;;;;;2.10;1.98;;;10.80;99.20;;;;;;4938459;29;20239;-64
2023/03/29 07:09:30;;;;;;;3.85;2.65;;;10.80;99.10;;;;;;4952125;29;20533;-65
2023/03/29 07:11:57;;;;;;;2.47;2.03;;;10.90;99.00;;;;;;4955908;28;20229;-66
2023/03/29 07:14:27;;;;;;;2.60;1.87;;;10.90;98.70;;;;;;4951425;28;20695;-64
2023/03/29 07:17:00;;;;;;;3.33;1.80;;;10.90;98.80;;;;;;4939566;28;20421;-65
2023/03/29 07:19:28;;;;;;;2.13;1.90;;;10.90;99.00;;;;;;4939035;29;20184;-65
2023/03/29 07:21:54;;;;;;;2.30;2.10;;;10.90;99.30;;;;;;4935442;29;20904;-65
2023/03/29 07:24:21;;;;;;;2.30;1.63;;;11.00;99.40;;;;;;4934868;29;21043;-65
2023/03/29 07:26:51;;;;;;;2.00;1.90;;;11.00;99.40;;;;;;4936211;29;20890;-65
2023/03/29 07:29:16;;;;;;;2.37;1.90;;;11.10;99.40;;;;;;4937933;29;20209;-64
2023/03/29 07:31:43;;;;;;;2.00;1.90;;;11.20;99.40;;;;;;4945007;28;20892;-64
2023/03/29 07:34:12;;;;;;;1.90;1.60;;;11.30;99.30;;;;;;4939409;29;20445;-66
2023/03/29 07:36:38;;;;;;;1.90;1.70;;;11.30;98.60;;;;;;4947029;28;20207;-66
2023/03/29 07:39:05;;;;;;;2.00;1.90;;;11.40;98.40;;;;;;4948846;28;20777;-66
2023/03/29 07:41:31;;;;;;;3.10;1.80;;;11.50;98.50;;;;;;4936034;29;20447;-68
2023/03/29 07:43:57;;;;;;;6.00;1.83;;;11.50;98.40;;;;;;4935694;29;20471;-66
2023/03/29 07:46:23;;;;;;;2.33;1.80;;;11.60;98.30;;;;;;4936219;29;20918;-64
2023/03/29 07:48:50;;;;;;;7.80;2.13;;;11.60;97.90;;;;;;4934857;29;20430;-65
2023/03/29 07:51:15;;;;;;;3.00;2.20;;;11.60;98.00;;;;;;4935990;29;20805;-67
2023/03/29 07:53:41;;;;;;;2.00;1.90;;;11.60;98.30;;;;;;4935501;29;20420;-64
2023/03/29 07:56:07;;;;;;;5.70;3.00;;;11.60;98.50;;;;;;4943695;29;20274;-65
2023/03/29 07:58:33;;;;;;;2.23;2.13;;;11.70;98.60;;;;;;4944235;29;20493;-66
2023/03/29 08:00:59;;;;;;;2.67;2.00;;;11.80;98.70;;;;;;4952216;28;20422;-66
2023/03/29 08:03:26;;;;;;;1.67;1.30;;;11.80;98.70;;;;;;4949074;29;20402;-65
2023/03/29 08:05:52;;;;;;;3.50;1.87;;;11.90;98.30;;;;;;4948232;28;20333;-64
2023/03/29 08:08:17;;;;;;;4.30;2.20;;;12.00;98.00;;;;;;4945010;29;20511;-64
2023/03/29 08:10:43;;;;;;;2.23;2.03;;;12.10;97.90;;;;;;4944366;28;20199;-64
2023/03/29 08:13:09;;;;;;;1.33;1.23;;;12.20;97.80;;;;;;4945751;29;20737;-64
2023/03/29 08:15:37;;;;;;;1.40;1.30;;;12.30;97.40;;;;;;4944540;29;20185;-65
2023/03/29 08:18:04;;;;;;;2.40;1.67;;;12.40;97.30;;;;;;4944341;28;21047;-64
2023/03/29 08:20:29;;;;;;;1.70;1.43;;;12.60;97.40;;;;;;4952658;29;20411;-66
2023/03/29 08:22:55;;;;;;;1.70;1.57;;;12.70;96.80;;;;;;4940539;29;20498;-65
2023/03/29 08:25:21;;;;;;;1.63;1.53;;;12.80;96.40;;;;;;4945574;29;20200;-66
2023/03/29 08:27:47;;;;;;;1.87;1.77;;;12.80;96.80;;;;;;4943618;28;20430;-66
2023/03/29 08:30:13;;;;;;;1.63;1.53;;;12.90;96.80;;;;;;4945274;28;20192;-67
2023/03/29 08:32:39;;;;;;;2.47;2.27;;;13.10;96.10;;;;;;4944727;29;20178;-65
2023/03/29 08:35:08;;;;;;;1.70;1.57;;;13.20;95.60;;;;;;4954648;28;20454;-65
2023/03/29 08:37:35;;;;;;;2.20;2.10;;;13.40;95.20;;;;;;4945929;28;20409;-63
2023/03/29 08:40:01;;;;;;;1.33;1.23;;;13.50;95.00;;;;;;4947784;28;20420;-63
2023/03/29 08:43:02;;;;;;;0.90;0.90;;;13.50;94.90;;;;;;4937832;28;20500;-64
2023/03/29 08:46:14;;;;;;;1.80;1.40;;;13.50;94.80;;;;;;4936598;29;20480;-64
2023/03/29 08:48:47;;;;;;;1.40;1.30;;;13.60;94.90;;;;;;4924708;29;20460;-64
2023/03/29 08:51:39;;;;;;;4.20;1.70;;;13.60;94.70;;;;;;4949974;29;20438;-66
2023/03/29 08:54:12;;;;;;;3.23;1.80;;;13.60;94.50;;;;;;4955963;29;20536;-65
2023/03/29 08:56:39;;;;;;;1.13;1.10;;;13.60;94.30;;;;;;4948422;29;20394;-65
2023/03/29 08:59:13;;;;;;;0.80;0.80;;;13.70;94.30;;;;;;4956684;29;20845;-64
2023/03/29 09:01:39;;;;;;;2.20;1.67;;;13.70;94.20;;;;;;4957743;28;20910;-64
2023/03/29 09:04:15;;;;;;;1.60;1.50;;;13.70;94.10;;;;;;4955735;28;20451;-64
2023/03/29 09:06:40;;;;;;;1.07;1.07;;;13.70;94.50;;;;;;4957441;28;20189;-66
2023/03/29 09:09:13;;;;;;;1.60;1.30;;;13.60;94.20;;;;;;4955851;28;20426;-65
2023/03/29 09:11:57;;;;;;;3.50;2.10;;;13.60;94.40;;;;;;4954134;29;20232;-63
2023/03/29 09:14:56;;;;;;;0.93;0.93;;;13.70;94.40;;;;;;4938445;29;20436;-63
2023/03/29 09:17:51;;;;;;;3.23;2.50;;;13.70;94.50;;;;;;4953894;29;20405;-65
2023/03/29 09:20:26;;;;;;;1.00;1.00;;;13.80;94.20;;;;;;4957538;28;20503;-63
2023/03/29 09:23:18;;;;;;;2.00;1.33;;;13.80;93.60;;;;;;4954596;28;20419;-63
2023/03/29 09:26:13;;;;;;;1.70;1.10;;;13.70;93.30;;;;;;4954014;28;20411;-64
2023/03/29 09:29:03;;;;;;;1.30;1.20;;;13.90;93.00;;;;;;4950903;29;20443;-64
2023/03/29 09:31:34;;;;;;;1.67;1.57;;;14.00;93.60;;;;;;4949568;29;20470;-65
2023/03/29 09:34:37;;;;;;;1.00;1.00;;;14.20;93.80;;;;;;4947946;29;20446;-64
2023/03/29 09:37:10;;;;;;;3.13;1.70;;;14.50;93.40;;;;;;4941129;29;20439;-63
2023/03/29 09:39:37;;;;;;;3.07;1.50;;;14.90;92.60;;;;;;4957453;28;20780;-63
2023/03/29 09:42:10;;;;;;;1.37;1.27;;;15.20;92.10;;;;;;4957003;28;20781;-63
2023/03/29 09:45:07;;;;;;;0.90;0.90;;;15.50;91.80;;;;;;4956151;28;20450;-65
2023/03/29 09:47:43;;;;;;;3.27;1.43;;;15.70;90.10;;;;;;4953847;29;20427;-66
2023/03/29 09:50:32;;;;;;;1.20;1.10;;;15.90;90.00;;;;;;4943255;29;20528;-64
2023/03/29 09:52:59;;;;;;;1.50;1.40;;;16.10;89.10;;;;;;4951608;29;20508;-63
2023/03/29 09:55:28;;;;;;;1.20;1.13;;;16.10;89.50;;;;;;4956698;28;20442;-63
2023/03/29 09:57:57;;;;;;;1.30;1.20;;;16.20;88.20;;;;;;4957077;28;20403;-63
2023/03/29 10:00:23;;;;;;;1.17;1.07;;;16.50;88.30;;;;;;4938016;29;20416;-62
2023/03/29 10:02:51;;;;;;;1.17;1.17;;;16.60;85.90;;;;;;4945299;29;20417;-67
2023/03/29 10:05:17;;;;;;;2.50;1.23;;;16.70;86.30;;;;;;4945145;29;20494;-62
2023/03/29 10:07:52;;;;;;;1.70;1.60;;;16.70;85.70;;;;;;4936679;29;20428;-61
2023/03/29 10:10:32;;;;;;;1.53;1.43;;;17.00;86.10;;;;;;4939551;29;20556;-62
2023/03/29 10:13:05;;;;;;;1.47;1.37;;;17.30;84.50;;;;;;4951629;28;20405;-64
2023/03/29 10:15:32;;;;;;;1.50;1.40;;;17.50;82.30;;;;;;4938942;29;20445;-63
2023/03/29 10:18:05;;;;;;;1.50;1.30;;;17.30;82.80;;;;;;4937758;29;20458;-62
2023/03/29 10:20:34;;;;;;;1.13;1.13;;;16.90;83.60;;;;;;4937522;29;20409;-64
2023/03/29 10:22:59;;;;;;;1.70;1.57;;;16.80;84.70;;;;;;4937279;29;20505;-64
2023/03/29 10:25:30;;;;;;;2.07;1.30;;;16.90;83.20;;;;;;4945842;29;20515;-64
2023/03/29 10:28:05;;;;;;;1.07;1.07;;;17.20;83.40;;;;;;4942404;28;20268;-64
2023/03/29 10:30:36;;;;;;;1.57;1.47;;;17.50;83.30;;;;;;4950075;28;20456;-64
2023/03/29 10:33:02;;;;;;;1.60;1.50;;;17.70;83.70;;;;;;4946189;28;20424;-63
2023/03/29 10:35:40;;;;;;;1.27;1.27;;;17.80;83.00;;;;;;4945580;29;21225;-62
2023/03/29 10:38:13;;;;;;;1.30;1.20;;;17.70;79.30;;;;;;4945441;28;20413;-63
2023/03/29 10:40:45;;;;;;;1.40;1.40;;;17.40;78.80;;;;;;4945877;28;20383;-64
2023/03/29 10:43:31;;;;;;;1.70;1.20;;;17.20;81.50;;;;;;4945664;29;20501;-62
2023/03/29 10:46:18;;;;;;;1.10;1.10;;;17.00;83.50;;;;;;4946551;29;20419;-62
2023/03/29 10:48:49;;;;;;;1.40;1.30;;;17.10;82.20;;;;;;4946588;29;20409;-64
2023/03/29 10:51:17;;;;;;;1.63;1.40;;;17.10;82.50;;;;;;4937033;29;20501;-65
2023/03/29 10:53:43;;;;;;;0.90;0.90;;;17.10;83.50;;;;;;4945332;29;20421;-63
2023/03/29 10:56:26;;;;;;;1.30;1.00;;;17.30;82.00;;;;;;4954109;28;20474;-64
2023/03/29 10:59:26;;;;;;;1.40;1.30;;;17.30;81.00;;;;;;4955641;28;20183;-63
2023/03/29 11:02:13;;;;;;;1.00;1.00;;;17.40;79.70;;;;;;4950157;28;20439;-63
2023/03/29 11:04:51;;;;;;;0.90;0.90;;;17.60;80.70;;;;;;4949847;29;20411;-63
2023/03/29 11:07:41;;;;;;;1.90;1.47;;;17.70;80.60;;;;;;4947061;29;20436;-64
2023/03/29 11:10:35;;;;;;;2.03;1.40;;;18.00;78.30;;;;;;4949425;29;20529;-64
2023/03/29 11:14:03;;;;;;;1.30;1.20;;;18.10;78.90;;;;;;4947653;29;20452;-61
2023/03/29 11:16:42;;;;;;;1.27;1.27;;;18.40;78.00;;;;;;4950902;29;20467;-65
2023/03/29 11:19:16;;;;;;;1.73;1.63;;;18.70;77.20;;;;;;4953226;29;20993;-64
2023/03/29 11:22:10;;;;;;;1.90;1.30;;;18.90;77.30;;;;;;4953714;28;20432;-66
2023/03/29 11:24:59;;;;;;;1.33;1.23;;;19.00;76.70;;;;;;4954898;28;20584;-65
2023/03/29 11:27:47;;;;;;;2.93;1.87;;;18.90;76.50;;;;;;4949135;28;20488;-66
2023/03/29 11:30:35;;;;;;;1.83;1.40;;;19.00;75.80;;;;;;4952084;28;20475;-64
2023/03/29 11:33:03;;;;;;;1.50;1.40;;;19.10;75.70;;;;;;4952624;29;20387;-67
2023/03/29 11:35:46;;;;;;;1.80;1.50;;;19.10;75.30;;;;;;4949158;28;20951;-71
2023/03/29 11:38:32;;;;;;;1.90;1.63;;;19.00;75.70;;;;;;4935411;29;20431;-69
2023/03/29 11:41:18;;;;;;;2.10;1.37;;;19.00;76.60;;;;;;4953105;29;20379;-71
2023/03/29 11:44:12;;;;;;;1.40;1.30;;;18.90;76.30;;;;;;4948318;28;20819;-70
2023/03/29 11:47:09;;;;;;;1.60;1.43;;;19.00;76.50;;;;;;4945486;29;20399;-74
2023/03/29 11:49:51;;;;;;;1.30;1.20;;;19.10;76.70;;;;;;4947844;29;20420;-68
2023/03/29 11:52:17;;;;;;;1.33;1.10;;;19.20;78.60;;;;;;4945108;29;20429;-71
2023/03/29 11:55:15;;;;;;;1.63;1.30;;;19.10;79.50;;;;;;4948571;29;20447;-68
2023/03/29 11:57:50;;;;;;;1.43;1.33;;;18.80;78.10;;;;;;4948139;28;20185;-69
2023/03/29 12:00:24;;;;;;;1.23;1.23;;;18.70;79.20;;;;;;4947032;28;20413;-71
2023/03/29 12:02:51;;;;;;;1.23;1.17;;;18.60;78.00;;;;;;4948881;28;20460;-68
2023/03/29 12:05:19;;;;;;;1.20;1.10;;;18.50;78.70;;;;;;4947665;28;20464;-71
2023/03/29 12:07:55;;;;;;;1.57;1.47;;;18.50;78.60;;;;;;4953079;29;20491;-72
2023/03/29 12:10:26;;;;;;;2.03;1.43;;;18.50;79.00;;;;;;4954550;28;21048;-72
2023/03/29 12:13:11;;;;;;;1.60;1.50;;;18.60;79.70;;;;;;4947764;29;20437;-71
2023/03/29 12:15:49;;;;;;;2.50;1.47;;;18.80;79.20;;;;;;4949232;28;20423;-69
2023/03/29 12:18:33;;;;;;;1.97;1.50;;;19.20;80.30;;;;;;4949712;29;20402;-72
2023/03/29 12:21:02;;;;;;;2.37;1.80;;;19.50;77.40;;;;;;4954269;28;20435;-66
2023/03/29 12:23:32;;;;;;;1.40;1.10;;;19.70;77.10;;;;;;4955636;29;20439;-71
2023/03/29 12:26:31;;;;;;;1.43;1.33;;;19.80;76.60;;;;;;4959075;28;20433;-65
2023/03/29 12:29:36;;;;;;;1.37;1.27;;;19.80;76.40;;;;;;4958072;28;20847;-67
2023/03/29 12:32:45;;;;;;;1.70;1.60;;;19.70;77.10;;;;;;4946558;29;20746;-66
2023/03/29 12:35:51;;;;;;;1.27;1.03;;;19.70;77.80;;;;;;4941542;29;20803;-67
2023/03/29 12:38:22;;;;;;;1.33;1.30;;;19.60;79.90;;;;;;4939047;29;20523;-68
2023/03/29 12:40:55;;;;;;;1.07;1.00;;;19.70;78.60;;;;;;4955700;28;20395;-69
2023/03/29 12:43:26;;;;;;;1.60;1.50;;;19.70;76.90;;;;;;4942440;29;20797;-69
2023/03/29 12:45:55;;;;;;;2.03;1.20;;;19.80;78.70;;;;;;4957660;28;20973;-70
2023/03/29 12:48:27;;;;;;;1.30;1.20;;;20.00;80.00;;;;;;4958506;28;20399;-70
2023/03/29 12:51:00;;;;;;;1.23;1.17;;;20.00;78.70;;;;;;4957754;29;20497;-69
2023/03/29 12:53:37;;;;;;;1.40;1.30;;;20.10;76.70;;;;;;4950282;29;20450;-70
2023/03/29 12:56:02;;;;;;;1.47;1.37;;;20.20;76.80;;;;;;4958367;28;20938;-70
2023/03/29 12:58:53;;;;;;;2.23;2.07;;;20.20;77.50;;;;;;4957703;28;20403;-68
2023/03/29 13:01:46;;;;;;;1.70;1.30;;;20.10;78.20;;;;;;4958085;28;20183;-69
2023/03/29 13:04:14;;;;;;;1.80;1.60;;;20.20;79.00;;;;;;4954950;28;20446;-69
2023/03/29 13:06:45;;;;;;;1.27;1.17;;;20.40;78.60;;;;;;4955759;28;20528;-69
2023/03/29 13:09:35;;;;;;;3.03;1.40;;;20.40;78.00;;;;;;4955816;28;20514;-70
2023/03/29 13:12:06;;;;;;;1.70;1.40;;;20.50;78.20;;;;;;4956009;28;20430;-69
2023/03/29 13:14:36;;;;;;;2.03;1.83;;;20.50;78.40;;;;;;4954800;28;20456;-69
2023/03/29 13:17:06;;;;;;;1.57;1.47;;;20.40;78.40;;;;;;4955808;28;20422;-70
2023/03/29 13:19:42;;;;;;;1.80;1.70;;;20.40;79.40;;;;;;4955850;29;20885;-69
2023/03/29 13:22:26;;;;;;;1.40;1.40;;;20.30;79.60;;;;;;4954129;29;20968;-69
2023/03/29 13:25:07;;;;;;;1.77;1.03;;;20.10;80.70;;;;;;4957178;28;20449;-71
2023/03/29 13:28:02;;;;;;;1.07;0.80;;;20.10;80.40;;;;;;4957814;28;20967;-70
2023/03/29 13:30:42;;;;;;;0.80;0.80;;;19.90;79.60;;;;;;4956422;28;20483;-71
2023/03/29 13:33:14;;;;;;;2.43;1.20;;;19.70;80.60;;;;;;4955614;28;20423;-70
2023/03/29 13:35:59;;;;;;;0.87;0.80;;;19.60;81.10;;;;;;4956011;28;20432;-71
2023/03/29 13:38:26;;;;;;;0.87;0.80;;;19.50;79.60;;;;;;4944111;29;20421;-69
2023/03/29 13:40:52;;;;;;;1.00;1.00;;;19.20;81.60;;;;;;4957353;28;20428;-72
2023/03/29 13:43:18;;;;;;;1.07;1.07;;;19.10;84.40;;;;;;4956938;28;20406;-70
2023/03/29 13:45:45;;;;;;;1.57;0.90;;;18.90;83.90;;;;;;4956542;28;20280;-68
2023/03/29 13:48:32;;;;;;;1.80;0.83;;;18.90;83.70;;;;;;4957000;28;20770;-69
2023/03/29 13:51:26;;;;;;;2.20;1.10;;;19.00;82.90;;;;;;4955477;29;20460;-69
2023/03/29 13:54:02;;;;;;;0.90;0.90;;;19.00;82.80;;;;;;4956143;28;21021;-69
2023/03/29 13:56:35;;;;;;;2.13;1.53;;;19.10;83.80;;;;;;4943681;29;20439;-69
2023/03/29 13:59:04;;;;;;;2.80;1.63;;;19.10;83.40;;;;;;4957173;28;20561;-71
2023/03/29 14:01:46;;;;;;;1.00;1.00;;;19.10;82.80;;;;;;4957001;28;20432;-70
2023/03/29 14:04:20;;;;;;;0.70;0.70;;;19.00;82.50;;;;;;4955308;29;20925;-71
2023/03/29 14:06:51;;;;;;;1.13;1.03;;;18.90;83.00;;;;;;4956940;28;20444;-70
2023/03/29 14:09:20;;;;;;;1.10;0.97;;;18.70;83.30;;;;;;4956952;28;20424;-71
2023/03/29 14:11:47;;;;;;;0.60;0.60;;;18.50;84.30;;;;;;4956400;28;20797;-69
2023/03/29 14:14:13;;;;;;;0.80;0.80;;;18.20;88.10;;;;;;4955973;28;20437;-72
2023/03/29 14:16:40;;;;;;;1.50;1.40;;;17.90;91.40;;;;;;4956625;28;20424;-71
2023/03/29 14:19:20;;;;;;;2.10;1.27;;;17.50;92.60;;;;;;4956266;28;20836;-72
2023/03/29 14:21:49;;;;;;;3.00;1.50;;;17.30;93.10;;;;;;4955260;29;20420;-70
2023/03/29 14:24:25;;;;;;;0.97;0.97;;;17.00;94.00;;;;;;5146981;23;20465;-72
2023/03/29 14:26:52;;;;;;;2.20;1.40;;;16.80;94.90;;;;;;4995614;28;20384;-72
2023/03/29 14:29:18;;;;;;;2.40;2.30;;;16.60;95.50;;;;;;4995718;28;20402;-72
2023/03/29 14:31:44;;;;;;;2.10;0.87;;;16.40;96.20;;;;;;4995475;28;20488;-73
2023/03/29 14:34:15;;;;;;;1.60;1.33;;;16.10;97.50;;;;;;4990188;28;20441;-71
2023/03/29 14:36:45;;;;;;;1.30;1.20;;;15.90;98.90;;;;;;4976102;28;20547;-72
2023/03/29 14:39:21;;;;;;;1.17;1.10;;;15.80;99.90;;;;;;4976137;28;20392;-72
2023/03/29 14:41:55;;;;;;;1.00;1.00;;;15.70;99.90;;;;;;4975747;28;20504;-71
2023/03/29 14:44:33;;;;;;;2.60;1.27;;;15.60;99.90;;;;;;4974393;28;20445;-69
2023/03/29 14:47:00;;;;;;;2.00;1.40;;;15.60;99.90;;;;;;4975917;28;20404;-70
2023/03/29 14:49:26;;;;;;;1.10;1.10;;;15.60;99.90;;;;;;4975822;28;20401;-71
2023/03/29 14:51:53;;;;;;;1.07;0.93;;;15.70;99.90;;;;;;4958345;28;20467;-70
2023/03/29 14:54:24;;;;;;;0.90;0.90;;;15.70;99.90;;;;;;4975362;28;20410;-71
2023/03/29 14:56:51;;;;;;;1.00;0.90;;;15.70;99.90;;;;;;4974232;28;20927;-71
2023/03/29 14:59:35;;;;;;;1.50;1.40;;;15.80;99.90;;;;;;4975716;28;20430;-71
2023/03/29 15:02:01;;;;;;;1.00;1.00;;;15.80;99.90;;;;;;4975472;28;20377;-73
2023/03/29 15:04:34;;;;;;;0.77;0.63;;;15.80;99.90;;;;;;4973719;28;20965;-71
2023/03/29 15:07:03;;;;;;;0.80;0.80;;;15.80;99.90;;;;;;4975549;28;20405;-71
2023/03/29 15:09:33;;;;;;;3.13;1.70;;;15.90;99.90;;;;;;4975382;28;20408;-71
2023/03/29 15:12:00;;;;;;;1.07;1.03;;;16.00;99.70;;;;;;4975470;28;20465;-72
2023/03/29 15:14:36;;;;;;;4.60;0.93;;;16.20;98.90;;;;;;4974670;28;20506;-72
2023/03/29 15:17:05;;;;;;;1.37;1.37;;;16.30;98.30;;;;;;4975317;28;20401;-71
2023/03/29 15:19:32;;;;;;;1.07;0.90;;;16.40;98.20;;;;;;4975105;28;20481;-71
2023/03/29 15:22:02;;;;;;;0.93;0.93;;;16.40;97.30;;;;;;4965407;28;20475;-71
2023/03/29 15:24:32;;;;;;;0.90;0.87;;;16.40;97.20;;;;;;4960447;28;20492;-71
2023/03/29 15:27:14;;;;;;;1.20;1.10;;;16.50;97.20;;;;;;4974230;28;20530;-76
2023/03/29 15:29:42;;;;;;;1.10;0.83;;;16.50;97.10;;;;;;4972439;28;20405;-74
2023/03/29 15:32:33;;;;;;;1.10;1.10;;;16.50;96.90;;;;;;4966103;28;20418;-75
2023/03/29 15:35:00;;;;;;;1.30;1.20;;;16.50;97.10;;;;;;4951751;28;20851;-70
2023/03/29 15:37:26;;;;;;;3.07;0.90;;;16.50;97.30;;;;;;4975024;28;20398;-70
2023/03/29 15:39:52;;;;;;;6.93;1.47;;;16.50;97.10;;;;;;4974949;28;20376;-71
2023/03/29 15:42:18;;;;;;;2.60;1.40;;;16.50;97.00;;;;;;4972724;28;20825;-71
2023/03/29 15:44:44;;;;;;;3.60;0.90;;;16.50;97.50;;;;;;4965043;28;20227;-68
2023/03/29 15:47:11;;;;;;;0.90;0.90;;;16.50;97.90;;;;;;4968965;28;20447;-69
2023/03/29 15:49:37;;;;;;;1.63;1.40;;;16.50;98.30;;;;;;4968449;28;20423;-68
2023/03/29 15:52:03;;;;;;;1.23;1.13;;;16.40;98.30;;;;;;4974778;28;20417;-67
2023/03/29 15:54:30;;;;;;;1.30;1.30;;;16.40;98.60;;;;;;4970182;28;20501;-67
2023/03/29 15:57:01;;;;;;;1.37;1.27;;;16.30;98.30;;;;;;4964572;28;20181;-65
2023/03/29 15:59:27;;;;;;;1.13;1.00;;;16.20;98.20;;;;;;4973533;28;20417;-67
2023/03/29 16:01:53;;;;;;;1.23;1.13;;;16.10;98.30;;;;;;4971043;28;20391;-67
2023/03/29 16:04:20;;;;;;;1.13;1.03;;;16.00;98.90;;;;;;4967688;28;20204;-65
2023/03/29 16:06:48;;;;;;;1.40;1.30;;;15.90;98.80;;;;;;4956692;28;20413;-67
2023/03/29 16:09:15;;;;;;;1.33;1.27;;;15.90;98.90;;;;;;4957301;28;20412;-66
2023/03/29 16:11:42;;;;;;;1.23;1.23;;;15.90;98.70;;;;;;4969105;28;20787;-65
2023/03/29 16:14:23;;;;;;;1.00;0.80;;;15.80;98.80;;;;;;4968870;28;20447;-63
2023/03/29 16:16:50;;;;;;;1.27;1.17;;;15.80;98.90;;;;;;4955094;28;20927;-64
2023/03/29 16:19:16;;;;;;;1.27;1.20;;;15.70;99.00;;;;;;4955134;28;20409;-66
2023/03/29 16:21:42;;;;;;;1.13;1.00;;;15.70;99.00;;;;;;4965277;28;20412;-66
2023/03/29 16:24:25;;;;;;;1.90;0.80;;;15.60;99.00;;;;;;4962135;28;20204;-66
2023/03/29 16:26:52;;;;;;;1.47;1.37;;;15.60;99.20;;;;;;4953927;29;20188;-66
2023/03/29 16:29:18;;;;;;;2.40;1.03;;;15.50;99.10;;;;;;4959242;28;20775;-68
2023/03/29 16:31:45;;;;;;;2.27;2.10;;;15.60;98.80;;;;;;4961099;28;20467;-67
2023/03/29 16:34:12;;;;;;;1.47;1.30;;;15.50;99.00;;;;;;4959412;28;20450;-66
2023/03/29 16:36:39;;;;;;;2.60;1.40;;;15.50;99.20;;;;;;4955274;28;20763;-65
2023/03/29 16:39:05;;;;;;;1.50;1.40;;;15.50;99.40;;;;;;4957574;28;20428;-64
2023/03/29 16:41:32;;;;;;;1.60;1.50;;;15.40;99.30;;;;;;4971384;28;20506;-65
2023/03/29 16:43:58;;;;;;;1.60;1.30;;;15.40;99.60;;;;;;4968394;28;20518;-64
2023/03/29 16:46:24;;;;;;;1.27;1.17;;;15.30;99.90;;;;;;4953726;28;20427;-62
2023/03/29 16:48:50;;;;;;;1.43;1.33;;;15.30;99.90;;;;;;4954830;28;20416;-64
2023/03/29 16:51:16;;;;;;;1.60;1.50;;;15.30;99.90;;;;;;4953664;28;20231;-64
2023/03/29 16:53:42;;;;;;;1.23;1.23;;;15.20;99.90;;;;;;4954363;28;20503;-65
2023/03/29 16:56:09;;;;;;;1.33;1.10;;;15.20;99.90;;;;;;4960628;28;20506;-67
2023/03/29 16:58:37;;;;;;;0.90;0.90;;;15.10;99.90;;;;;;4965185;28;20423;-64
2023/03/29 17:01:21;;;;;;;1.10;1.10;;;15.00;99.90;;;;;;4964569;28;20393;-64
2023/03/29 17:03:47;;;;;;;2.20;1.53;;;15.00;99.90;;;;;;4945478;28;20427;-63
2023/03/29 17:06:12;;;;;;;1.20;1.10;;;14.90;99.90;;;;;;4963735;28;20946;-65
2023/03/29 17:08:38;;;;;;;1.63;1.13;;;14.90;99.90;;;;;;4965922;28;20188;-64
2023/03/29 17:11:07;;;;;;;2.80;1.30;;;14.90;99.90;;;;;;4965566;28;20691;-64
2023/03/29 17:13:33;;;;;;;1.57;1.43;;;14.80;99.90;;;;;;4958822;28;20887;-64
2023/03/29 17:15:59;;;;;;;3.67;1.70;;;14.80;99.90;;;;;;4968234;28;20534;-65
2023/03/29 17:18:26;;;;;;;3.03;1.23;;;14.70;99.90;;;;;;4967355;28;20413;-63
2023/03/29 17:20:56;;;;;;;1.83;1.00;;;14.70;99.90;;;;;;4964157;28;20407;-62
2023/03/29 17:23:22;;;;;;;1.37;1.10;;;14.70;99.90;;;;;;4975266;28;20434;-61
2023/03/29 17:25:48;;;;;;;0.87;0.80;;;14.60;99.90;;;;;;4976481;28;20434;-63
2023/03/29 17:28:13;;;;;;;1.57;1.47;;;14.60;99.90;;;;;;4977018;28;20570;-64
2023/03/29 17:30:39;;;;;;;1.63;1.40;;;14.60;99.90;;;;;;4976819;28;20200;-65
2023/03/29 17:33:06;;;;;;;2.30;1.70;;;14.50;99.90;;;;;;4976866;28;20218;-63
2023/03/29 17:35:32;;;;;;;1.30;1.20;;;14.20;99.90;;;;;;4976612;28;20438;-63
2023/03/29 17:37:59;;;;;;;1.47;1.37;;;14.00;99.90;;;;;;4968599;28;20434;-64
2023/03/29 17:40:25;;;;;;;1.47;1.37;;;13.80;99.90;;;;;;4957379;28;20425;-63
2023/03/29 17:42:51;;;;;;;1.50;1.17;;;13.70;99.90;;;;;;4957214;28;20949;-61
2023/03/29 17:45:18;;;;;;;1.73;1.27;;;13.50;99.90;;;;;;4957151;28;20440;-65
2023/03/29 17:47:44;;;;;;;1.90;1.40;;;13.40;99.90;;;;;;4958367;28;20183;-61
2023/03/29 17:50:10;;;;;;;1.20;1.20;;;13.20;99.90;;;;;;4976252;28;20448;-64
2023/03/29 17:52:38;;;;;;;2.07;1.50;;;13.20;99.90;;;;;;4976627;28;20445;-67
2023/03/29 17:55:10;;;;;;;1.97;1.77;;;13.00;99.90;;;;;;4976169;28;20449;-65
2023/03/29 17:57:37;;;;;;;1.30;1.23;;;12.90;99.90;;;;;;4973052;28;20919;-62
2023/03/29 18:00:07;;;;;;;2.15;2.05;;;12.80;99.90;;;;;;4960727;28;20444;-66
2023/03/29 18:02:32;;;;;;;1.77;1.67;;;12.70;99.90;;;;;;4961774;28;20265;-65
2023/03/29 18:05:00;;;;;;;4.53;1.60;;;12.60;99.90;;;;;;4967432;28;20326;-66
2023/03/29 18:07:27;;;;;;;1.30;1.20;;;12.50;99.90;;;;;;4975920;28;20176;-63
2023/03/29 18:09:52;;;;;;;2.53;1.40;;;12.50;99.90;;;;;;4965191;28;20531;-65
2023/03/29 18:12:18;;;;;;;1.60;1.50;;;12.40;99.90;;;;;;4956916;28;20253;-65
2023/03/29 18:14:44;;;;;;;2.30;2.13;;;12.40;99.90;;;;;;4969823;28;20247;-66
2023/03/29 18:17:09;;;;;;;2.20;1.67;;;12.30;99.90;;;;;;4971580;28;20273;-64
2023/03/29 18:19:35;;;;;;;1.90;1.80;;;12.30;99.90;;;;;;4976053;28;20176;-64